Pagrindinis puslapis
METAR-TAF:

METAR-TAF

Oro uostai :

Chargas, Iranas

platuma: 29-15-34N, ilguma: 50-19-24E, Aukštis: 5 m

Dabartinis oras

Ataskaita buvo paskelbta 2 valandos ir 56 minutes, ne 15:00 UTC
Vėjas 8 kt iš Pietų/Pietvakarių
Temperatūra 20°C
Drėgmė 73%
Slėgis 1015 hPa
Matomumas 10 km arba daugiau
Išsisklaidę debesys ne aukštis 4000 ft
Su prošvaistėmis ne aukštis 10000 ft

METAR: OIBQ 221500Z 20008KT 9999 SCT040 BKN100 20/15 Q1015

Laikas: 21:26 (17:56 UTC)


TAF: trūkstamas

Orai ataskaitas ir orų prognozės (METAR, TAF).

turimą stotys yra geltonos ir raudonos taškus žemėlapyje.

Perkelti pele per norėdami pamatyti stoties vardą.

Tada spustelėkite, norėdami matyti oro stebėjimo ir prognozės.

Norėdami pakeisti žemėlapį: spustelėkite ant žalios mygtukų su juodo kryžiaus žemyn,; žalią mygtuką su brūkšneliu, jei norite nutolinti; arba žalių rodyklių gretimoms žemėlapius.


METAR-TAF: